Swan Station, North Carolina
Current Conditions -  °F | °C
As of 11:35 AM on Monday 24 Nov 2014 (Local Time) from KTTA Reporting Station
Scattered Clouds Scattered Clouds  
Wind Chill: 70°   Ceiling: Unl
Heat Index: 70°   Visibility: 10mi
Dew Point: 62°   Wind: 15mph
Humidity: 75%   Direction: 210°SSW
Pressure: 29.82"   Gusts: 22mph
Location:  35.493°N, 79.1765°W
Report Text: KTTA 241635Z AUTO 21013G19KT 10SM SCT028 SCT034 21/17 A2982 RMK AO2 T02110166
Loading
Personal Weather Stations






























Interactive Weather Map New forecast layout! Learn more

10-Day Weather Forecast

Advertisements
Track Severe Weather on mobile